createdAt,value
2023-04-06T00:02:55.896Z,16.12
2023-04-06T00:05:57.385Z,16.12
2023-04-06T00:08:58.949Z,16.11
2023-04-06T00:12:01.113Z,16.12
2023-04-06T00:15:02.649Z,16.10
2023-04-06T00:18:04.352Z,16.09
2023-04-06T00:21:06.085Z,16.07
2023-04-06T00:24:07.640Z,16.07
2023-04-06T00:27:09.071Z,16.06
2023-04-06T00:30:10.745Z,16.05
2023-04-06T00:33:12.290Z,16.03
2023-04-06T00:36:13.904Z,16.04
2023-04-06T00:39:15.630Z,16.03
2023-04-06T00:42:17.043Z,16.02
2023-04-06T00:45:19.074Z,16.01
2023-04-06T00:48:20.564Z,16.00
2023-04-06T00:51:22.000Z,16.00
2023-04-06T00:54:23.465Z,15.99
2023-04-06T00:57:25.331Z,15.98
2023-04-06T01:00:30.545Z,15.97
2023-04-06T01:03:35.099Z,15.96
2023-04-06T01:06:37.118Z,15.96
2023-04-06T01:09:38.899Z,15.96
2023-04-06T01:12:48.583Z,15.95
2023-04-06T01:15:59.337Z,15.94
2023-04-06T01:19:21.945Z,15.94
2023-04-06T01:22:26.612Z,15.93
2023-04-06T01:25:33.173Z,15.92
2023-04-06T01:28:41.111Z,15.91
2023-04-06T01:31:57.885Z,15.90
2023-04-06T01:35:00.027Z,15.89
2023-04-06T01:38:01.894Z,15.87
2023-04-06T01:41:07.530Z,15.87
2023-04-06T01:44:20.082Z,15.85
2023-04-06T01:47:27.324Z,15.84
2023-04-06T01:50:30.233Z,15.83
2023-04-06T01:53:32.272Z,15.83
2023-04-06T01:56:38.967Z,15.82
2023-04-06T01:59:54.292Z,15.81
2023-04-06T02:03:04.540Z,15.82
2023-04-06T02:06:07.199Z,15.81
2023-04-06T02:09:13.426Z,15.79
2023-04-06T02:12:15.024Z,15.79
2023-04-06T02:15:16.972Z,15.79
2023-04-06T02:18:19.197Z,15.78
2023-04-06T02:21:21.284Z,15.78
2023-04-06T02:24:22.814Z,15.78
2023-04-06T02:27:24.310Z,15.77
2023-04-06T02:30:25.844Z,15.75
2023-04-06T02:33:27.264Z,15.76
2023-04-06T02:36:28.733Z,15.74
2023-04-06T02:39:30.271Z,15.74
2023-04-06T02:42:31.698Z,15.73
2023-04-06T02:45:33.343Z,15.70
2023-04-06T02:48:38.039Z,15.69
2023-04-06T02:51:39.578Z,15.70
2023-04-06T02:55:00.900Z,15.70
2023-04-06T02:58:05.407Z,15.69
2023-04-06T03:01:16.134Z,15.69
2023-04-06T03:04:18.520Z,15.68
2023-04-06T03:07:21.176Z,15.68
2023-04-06T03:10:22.800Z,15.69
2023-04-06T03:13:24.872Z,15.69
2023-04-06T03:16:29.796Z,15.70
2023-04-06T03:19:32.059Z,15.71
2023-04-06T03:22:35.680Z,15.72
2023-04-06T03:25:37.654Z,15.73
2023-04-06T03:28:41.654Z,15.74
2023-04-06T03:31:43.223Z,15.75
2023-04-06T03:34:58.076Z,15.75
2023-04-06T03:38:00.122Z,15.77
2023-04-06T03:41:04.618Z,15.77
2023-04-06T03:44:06.425Z,15.77
2023-04-06T03:47:07.957Z,15.77
2023-04-06T03:50:10.013Z,15.77
2023-04-06T03:53:12.011Z,15.77
2023-04-06T03:56:13.493Z,15.77
2023-04-06T03:59:14.964Z,15.78
2023-04-06T04:02:16.491Z,15.77
2023-04-06T04:05:17.983Z,15.76
2023-04-06T04:08:19.415Z,15.76
2023-04-06T04:11:20.945Z,15.76
2023-04-06T04:14:28.289Z,15.75
2023-04-06T04:17:29.832Z,15.74
2023-04-06T04:20:31.349Z,15.74
2023-04-06T04:23:33.225Z,15.73
2023-04-06T04:26:34.899Z,15.73
2023-04-06T04:29:36.407Z,15.72
2023-04-06T04:32:42.079Z,15.71
2023-04-06T04:35:45.341Z,15.71
2023-04-06T04:38:50.847Z,15.70
2023-04-06T04:41:52.516Z,15.69
2023-04-06T04:44:53.999Z,15.70
2023-04-06T04:48:08.786Z,15.69
2023-04-06T04:51:22.111Z,15.68
2023-04-06T04:54:38.706Z,15.67
2023-04-06T04:57:40.581Z,15.66
2023-04-06T05:00:42.317Z,15.67
2023-04-06T05:03:43.954Z,15.67
2023-04-06T05:06:49.614Z,15.68
2023-04-06T05:09:52.970Z,15.69
2023-04-06T05:12:56.013Z,15.70
2023-04-06T05:15:57.641Z,15.72
2023-04-06T05:19:03.283Z,15.73
2023-04-06T05:22:16.965Z,15.73
2023-04-06T05:25:22.174Z,15.73
2023-04-06T05:28:27.120Z,15.75
2023-04-06T05:31:29.782Z,15.75
2023-04-06T05:34:31.562Z,15.75
2023-04-06T05:37:37.508Z,15.74
2023-04-06T05:40:41.743Z,15.75
2023-04-06T05:43:46.643Z,15.74
2023-04-06T05:46:48.506Z,15.75
2023-04-06T05:49:51.935Z,15.75
2023-04-06T05:53:03.769Z,15.75
2023-04-06T05:56:13.363Z,15.75
2023-04-06T05:59:16.336Z,15.74
2023-04-06T06:02:19.264Z,15.73
2023-04-06T06:05:24.267Z,15.72
2023-04-06T06:08:26.154Z,15.70
2023-04-06T06:11:28.822Z,15.67
2023-04-06T06:14:30.769Z,15.66
2023-04-06T06:17:32.704Z,15.63
2023-04-06T06:20:34.676Z,15.62
2023-04-06T06:23:39.457Z,15.61
2023-04-06T06:26:41.593Z,15.60
2023-04-06T06:29:44.386Z,15.58
2023-04-06T06:32:47.076Z,15.57
2023-04-06T06:35:48.776Z,15.55
2023-04-06T06:38:50.347Z,15.52
2023-04-06T06:41:56.572Z,15.49
2023-04-06T06:45:16.901Z,15.47
2023-04-06T06:48:18.330Z,15.46
2023-04-06T06:51:19.794Z,15.44
2023-04-06T06:54:21.214Z,15.41
2023-04-06T06:57:22.692Z,15.39
2023-04-06T07:00:24.929Z,15.37
2023-04-06T07:03:27.812Z,15.37
2023-04-06T07:06:29.819Z,15.35
2023-04-06T07:09:31.603Z,15.33
2023-04-06T07:12:34.988Z,15.31
2023-04-06T07:15:38.022Z,15.30
2023-04-06T07:18:39.565Z,15.27
2023-04-06T07:21:41.006Z,15.25
2023-04-06T07:24:42.479Z,15.23
2023-04-06T07:27:43.979Z,15.21
2023-04-06T07:30:46.311Z,15.19
2023-04-06T07:33:48.158Z,15.18
2023-04-06T07:36:49.809Z,15.18
2023-04-06T07:39:51.470Z,15.19
2023-04-06T07:42:53.915Z,15.19
2023-04-06T07:45:58.254Z,15.19
2023-04-06T07:49:00.693Z,15.20
2023-04-06T07:52:04.472Z,15.18
2023-04-06T07:55:08.092Z,15.19
2023-04-06T07:58:09.590Z,15.19
2023-04-06T08:01:11.365Z,15.21
2023-04-06T08:04:13.212Z,15.25
2023-04-06T08:07:14.928Z,15.28
2023-04-06T08:10:16.458Z,15.29
2023-04-06T08:13:17.967Z,15.31
2023-04-06T08:16:19.580Z,15.33
2023-04-06T08:19:21.068Z,15.35
2023-04-06T08:22:22.592Z,15.36
2023-04-06T08:25:24.162Z,15.36
2023-04-06T08:28:25.767Z,15.36
2023-04-06T08:31:27.366Z,15.36
2023-04-06T08:34:28.858Z,15.34
2023-04-06T08:37:30.807Z,15.35
2023-04-06T08:40:36.618Z,15.35
2023-04-06T08:43:42.686Z,15.37
2023-04-06T08:46:44.222Z,15.37
2023-04-06T08:49:46.695Z,15.37
2023-04-06T08:52:48.965Z,15.38
2023-04-06T08:55:51.134Z,15.38
2023-04-06T08:58:55.303Z,15.39
2023-04-06T09:01:57.743Z,15.39
2023-04-06T09:05:00.093Z,15.41
2023-04-06T09:08:01.567Z,15.40
2023-04-06T09:11:03.572Z,15.41
2023-04-06T09:14:05.073Z,15.41
2023-04-06T09:17:06.869Z,15.42
2023-04-06T09:20:08.389Z,15.42
2023-04-06T09:23:18.471Z,15.42
2023-04-06T09:26:21.032Z,15.42
2023-04-06T09:29:23.264Z,15.42
2023-04-06T09:32:24.738Z,15.42
2023-04-06T09:35:27.803Z,15.42
2023-04-06T09:38:29.299Z,15.42
2023-04-06T09:41:31.390Z,15.42
2023-04-06T09:44:32.847Z,15.42
2023-04-06T09:47:37.166Z,15.42
2023-04-06T09:50:38.794Z,15.42
2023-04-06T09:53:42.790Z,15.43
2023-04-06T09:56:47.990Z,15.42
2023-04-06T10:00:12.610Z,15.43
2023-04-06T10:03:14.340Z,15.43
2023-04-06T10:06:19.869Z,15.44
2023-04-06T10:09:25.997Z,15.44
2023-04-06T10:12:27.800Z,15.44
2023-04-06T10:15:32.481Z,15.44
2023-04-06T10:18:34.186Z,15.47
2023-04-06T10:21:37.462Z,15.47
2023-04-06T10:24:38.919Z,15.48
2023-04-06T10:27:40.458Z,15.47
2023-04-06T10:30:43.948Z,15.47
2023-04-06T10:33:54.518Z,15.47
2023-04-06T10:36:56.329Z,15.48
2023-04-06T10:40:00.928Z,15.47
2023-04-06T10:43:12.716Z,15.47
2023-04-06T10:46:14.217Z,15.47
2023-04-06T10:49:15.798Z,15.47
2023-04-06T10:52:17.249Z,15.47
2023-04-06T10:55:21.499Z,15.46
2023-04-06T10:58:26.717Z,15.47
2023-04-06T11:01:28.674Z,15.47
2023-04-06T11:04:31.175Z,15.48
2023-04-06T11:07:32.699Z,15.48
2023-04-06T11:10:34.205Z,15.49
2023-04-06T11:13:56.323Z,15.49
2023-04-06T11:16:57.926Z,15.48
2023-04-06T11:19:59.718Z,15.48
2023-04-06T11:23:02.480Z,15.48
2023-04-06T11:26:04.095Z,15.48
2023-04-06T11:29:06.118Z,15.47
2023-04-06T11:32:08.383Z,15.47
2023-04-06T11:35:22.782Z,15.48
2023-04-06T11:38:24.227Z,15.47
2023-04-06T11:41:27.102Z,15.47
2023-04-06T11:44:28.537Z,15.46
2023-04-06T11:47:31.455Z,15.47
2023-04-06T11:50:35.257Z,15.45
2023-04-06T11:53:44.774Z,15.46
2023-04-06T11:56:47.304Z,15.45
2023-04-06T11:59:48.838Z,15.44
2023-04-06T12:02:50.975Z,15.43
2023-04-06T12:05:52.478Z,15.44
2023-04-06T12:08:53.970Z,15.44
2023-04-06T12:11:55.428Z,15.43
2023-04-06T12:14:57.271Z,15.42
2023-04-06T12:17:58.755Z,15.41
2023-04-06T12:21:00.289Z,15.40
2023-04-06T12:24:02.280Z,15.38
2023-04-06T12:27:10.150Z,15.38
2023-04-06T12:30:13.386Z,15.37
2023-04-06T12:33:14.990Z,15.36
2023-04-06T12:36:20.259Z,15.35
2023-04-06T12:39:22.571Z,15.35
2023-04-06T12:42:24.057Z,15.34
2023-04-06T12:45:25.574Z,15.34
2023-04-06T12:48:28.351Z,15.33
2023-04-06T12:51:30.084Z,15.33
2023-04-06T12:54:31.574Z,15.33
2023-04-06T12:57:33.121Z,15.35
2023-04-06T13:00:34.635Z,15.34
2023-04-06T13:03:36.168Z,15.36
2023-04-06T13:06:37.702Z,15.36
2023-04-06T13:09:39.164Z,15.39
2023-04-06T13:12:40.690Z,15.39
2023-04-06T13:15:42.368Z,15.41
2023-04-06T13:18:44.074Z,15.42
2023-04-06T13:21:45.823Z,15.44
2023-04-06T13:24:47.365Z,15.47
2023-04-06T13:27:49.618Z,15.49
2023-04-06T13:30:51.180Z,15.48
2023-04-06T13:33:52.594Z,15.48
2023-04-06T13:36:54.117Z,15.48
2023-04-06T13:39:55.930Z,15.48
2023-04-06T13:42:57.374Z,15.47
2023-04-06T13:46:00.946Z,15.48
2023-04-06T13:49:02.493Z,15.49
2023-04-06T13:52:04.035Z,15.50
2023-04-06T13:55:05.967Z,15.51
2023-04-06T13:58:07.342Z,15.52
2023-04-06T14:01:11.285Z,15.53
2023-04-06T14:04:13.239Z,15.54
2023-04-06T14:07:14.810Z,15.55
2023-04-06T14:10:16.430Z,15.57
2023-04-06T14:13:18.101Z,15.57
2023-04-06T14:16:21.587Z,15.58
2023-04-06T14:19:23.050Z,15.59
2023-04-06T14:22:24.493Z,15.58
2023-04-06T14:25:26.076Z,15.59
2023-04-06T14:28:27.930Z,15.60
2023-04-06T14:31:29.432Z,15.60
2023-04-06T14:34:31.024Z,15.47
2023-04-06T14:37:32.409Z,15.33
2023-04-06T14:40:35.848Z,15.26
2023-04-06T14:43:37.261Z,15.26
2023-04-06T14:46:38.881Z,15.29
2023-04-06T14:49:40.292Z,15.34
2023-04-06T14:52:41.698Z,15.37
2023-04-06T14:55:44.114Z,15.44
2023-04-06T14:58:45.673Z,15.49
2023-04-06T15:01:47.183Z,15.54
2023-04-06T15:04:48.807Z,15.60
2023-04-06T15:07:50.313Z,15.65
2023-04-06T15:10:52.374Z,15.70
2023-04-06T15:13:53.756Z,15.73
2023-04-06T15:16:55.476Z,15.77
2023-04-06T15:19:56.823Z,15.80
2023-04-06T15:22:58.172Z,15.82
2023-04-06T15:25:59.619Z,15.84
2023-04-06T15:29:01.585Z,15.88
2023-04-06T15:32:03.237Z,15.91
2023-04-06T15:35:11.763Z,15.94
2023-04-06T15:38:13.263Z,15.97
2023-04-06T15:41:15.477Z,16.01
2023-04-06T15:44:16.992Z,16.04
2023-04-06T15:47:18.387Z,16.06
2023-04-06T15:50:19.885Z,16.07
2023-04-06T15:53:21.271Z,16.10
2023-04-06T15:56:22.672Z,16.11
2023-04-06T15:59:24.049Z,16.14
2023-04-06T16:02:25.878Z,16.17
2023-04-06T16:05:29.971Z,16.19
2023-04-06T16:08:32.480Z,16.18
2023-04-06T16:11:33.897Z,16.19
2023-04-06T16:14:35.430Z,16.18
2023-04-06T16:17:37.025Z,16.18
2023-04-06T16:20:38.418Z,16.19
2023-04-06T16:23:41.929Z,16.17
2023-04-06T16:26:44.379Z,16.18
2023-04-06T16:29:46.624Z,16.17
2023-04-06T16:32:51.608Z,16.17
2023-04-06T16:35:53.081Z,16.17
2023-04-06T16:38:57.885Z,16.17
2023-04-06T16:42:00.112Z,16.15
2023-04-06T16:45:02.939Z,16.15
2023-04-06T16:48:04.426Z,16.15
2023-04-06T16:51:06.555Z,16.15
2023-04-06T16:54:08.074Z,16.14
2023-04-06T16:57:09.548Z,16.14
2023-04-06T17:00:11.204Z,16.14
2023-04-06T17:03:12.650Z,16.13
2023-04-06T17:06:14.617Z,16.13
2023-04-06T17:09:16.378Z,16.13
2023-04-06T17:12:17.739Z,16.14
2023-04-06T17:15:19.153Z,16.13
2023-04-06T17:18:20.674Z,16.13
2023-04-06T17:21:22.029Z,16.16
2023-04-06T17:24:23.372Z,16.15
2023-04-06T17:27:26.515Z,16.16
2023-04-06T17:30:28.004Z,16.17
2023-04-06T17:33:32.330Z,16.19
2023-04-06T17:36:33.723Z,16.19
2023-04-06T17:39:35.584Z,16.19
2023-04-06T17:42:36.932Z,16.20
2023-04-06T17:45:38.288Z,16.19
2023-04-06T17:48:39.709Z,16.19
2023-04-06T17:51:41.239Z,16.19
2023-04-06T17:54:42.693Z,16.19
2023-04-06T17:57:44.641Z,16.19
2023-04-06T18:00:46.060Z,16.19
2023-04-06T18:03:47.423Z,16.20
2023-04-06T18:06:48.904Z,16.20
2023-04-06T18:09:50.410Z,16.22
2023-04-06T18:12:52.185Z,16.23
2023-04-06T18:15:54.232Z,16.24
2023-04-06T18:18:56.361Z,16.26
2023-04-06T18:21:58.107Z,16.26
2023-04-06T18:25:01.370Z,16.26
2023-04-06T18:28:02.800Z,16.27
2023-04-06T18:31:04.310Z,16.27
2023-04-06T18:34:05.910Z,16.27
2023-04-06T18:37:07.423Z,16.27
2023-04-06T18:40:09.124Z,16.28
2023-04-06T18:43:11.375Z,16.29
2023-04-06T18:46:13.544Z,16.30
2023-04-06T18:49:14.935Z,16.30
2023-04-06T18:52:16.320Z,16.33
2023-04-06T18:55:19.363Z,16.34
2023-04-06T18:58:20.962Z,16.34
2023-04-06T19:01:22.343Z,16.34
2023-04-06T19:04:24.012Z,16.36
2023-04-06T19:07:26.921Z,16.35
2023-04-06T19:10:29.536Z,16.35
2023-04-06T19:13:31.040Z,16.36
2023-04-06T19:16:32.497Z,16.35
2023-04-06T19:19:34.003Z,16.38
2023-04-06T19:22:36.230Z,16.38
2023-04-06T19:25:37.896Z,16.39
2023-04-06T19:28:39.867Z,16.41
2023-04-06T19:31:41.294Z,16.41
2023-04-06T19:34:42.751Z,16.42
2023-04-06T19:37:44.296Z,16.43
2023-04-06T19:40:45.861Z,16.43
2023-04-06T19:43:47.344Z,16.44
2023-04-06T19:46:50.486Z,16.44
2023-04-06T19:49:51.950Z,16.43
2023-04-06T19:52:55.587Z,16.45
2023-04-06T19:55:56.980Z,16.46
2023-04-06T19:58:58.589Z,16.49
2023-04-06T20:02:00.328Z,16.49
2023-04-06T20:05:01.820Z,16.51
2023-04-06T20:08:03.264Z,16.53
2023-04-06T20:11:07.434Z,16.55
2023-04-06T20:14:08.898Z,16.56
2023-04-06T20:17:10.278Z,16.57
2023-04-06T20:20:11.896Z,16.57
2023-04-06T20:23:13.320Z,16.59
2023-04-06T20:26:14.789Z,16.59
2023-04-06T20:29:17.080Z,16.60
2023-04-06T20:32:20.748Z,16.62
2023-04-06T20:35:22.524Z,16.65
2023-04-06T20:38:32.293Z,16.67
2023-04-06T20:41:35.414Z,16.68
2023-04-06T20:44:36.872Z,16.69
2023-04-06T20:47:38.881Z,16.69
2023-04-06T20:50:40.322Z,16.69
2023-04-06T20:53:41.691Z,16.70
2023-04-06T20:56:43.516Z,16.70
2023-04-06T20:59:47.849Z,16.70
2023-04-06T21:02:49.521Z,16.71
2023-04-06T21:05:55.180Z,16.71
2023-04-06T21:08:56.903Z,16.73
2023-04-06T21:11:58.361Z,16.72
2023-04-06T21:14:59.791Z,16.71
2023-04-06T21:18:01.337Z,16.72
2023-04-06T21:21:02.755Z,16.71
2023-04-06T21:24:04.287Z,16.72
2023-04-06T21:27:05.687Z,16.74
2023-04-06T21:30:07.481Z,16.72
2023-04-06T21:33:11.855Z,16.74
2023-04-06T21:36:13.290Z,16.73
2023-04-06T21:39:14.811Z,16.72
2023-04-06T21:42:16.318Z,16.73
2023-04-06T21:45:17.709Z,16.73
2023-04-06T21:48:19.163Z,16.72
2023-04-06T21:51:21.170Z,16.73
2023-04-06T21:54:22.557Z,16.72
2023-04-06T21:57:24.110Z,16.71
2023-04-06T22:00:25.579Z,16.71
2023-04-06T22:03:27.325Z,16.70
2023-04-06T22:06:29.998Z,16.70
2023-04-06T22:09:31.614Z,16.70
2023-04-06T22:12:33.030Z,16.70
2023-04-06T22:15:34.628Z,16.69
2023-04-06T22:18:38.677Z,16.70
2023-04-06T22:21:40.809Z,16.70
2023-04-06T22:24:42.262Z,16.70
2023-04-06T22:27:43.701Z,16.70
2023-04-06T22:30:45.262Z,16.70
2023-04-06T22:33:46.680Z,16.70
2023-04-06T22:36:48.250Z,16.71
2023-04-06T22:39:49.612Z,16.70
2023-04-06T22:42:51.035Z,16.72
2023-04-06T22:45:52.438Z,16.71
2023-04-06T22:48:53.982Z,16.73
2023-04-06T22:51:55.419Z,16.74
2023-04-06T22:54:56.817Z,16.73
2023-04-06T22:57:58.224Z,16.73
2023-04-06T23:00:59.659Z,16.73
2023-04-06T23:04:01.217Z,16.74
2023-04-06T23:07:02.730Z,16.73
2023-04-06T23:10:04.230Z,16.74
2023-04-06T23:13:05.650Z,16.73
2023-04-06T23:16:08.627Z,16.73
2023-04-06T23:19:10.065Z,16.73
2023-04-06T23:22:11.461Z,16.73
2023-04-06T23:25:12.837Z,16.73
2023-04-06T23:28:14.258Z,16.72
2023-04-06T23:31:15.667Z,16.71
2023-04-06T23:34:17.112Z,16.73
2023-04-06T23:37:18.644Z,16.70
2023-04-06T23:40:20.555Z,16.70
2023-04-06T23:43:21.924Z,16.71
2023-04-06T23:46:23.349Z,16.71
2023-04-06T23:49:24.813Z,16.71
2023-04-06T23:52:26.974Z,16.71
2023-04-06T23:55:28.390Z,16.70
2023-04-06T23:58:29.786Z,16.71
